Flight Track Log - Related Links

Times and Time Zones

All times are in EDT time to prevent confusion due to time zone crossing. See the N700QA flight status page for this flight to view local times or setup timezone preferences in your user account.

Time Position Orientation Groundspeed Altitude Reporting Facility
EDT Latitude Longitude Course Direction KTS MPH feet Rate Location/Type
Fri 07:35:23 PM 34.0542 -117.6211 278° West 170 196 23,000  Level Los Angeles Center
Fri 07:36:25 PM 34.0625 -117.6944 278° West 210 242 3,900 -8,274 Descending Los Angeles Center
Fri 07:37:27 PM 34.0758 -117.7756 281° West 222 255 5,900 2,226 Climbing Los Angeles Center
Fri 07:38:29 PM 34.1211 -117.8389 311° West 253 291 8,500 2,304 Climbing Los Angeles Center
Fri 07:39:32 PM 34.1728 -117.9011 315° West 262 302 10,700 2,304 Climbing Los Angeles Center
Fri 07:40:34 PM 34.2319 -117.9608 320° Northwest 275 316 13,300 2,516 Climbing Los Angeles Center
Fri 07:41:36 PM 34.2972 -117.9094 33° Northeast 257 296 15,900 2,226 Climbing Los Angeles Center
Fri 07:42:38 PM 34.3378 -117.8342 57° Northeast 263 303 17,900 1,935 Climbing Los Angeles Center
Fri 07:43:40 PM 34.3764 -117.7544 60° Northeast 272 313 19,900 1,887 Climbing Los Angeles Center
Fri 07:44:42 PM 34.4214 -117.6675 58° Northeast 287 330 21,800 1,403 Climbing Los Angeles Center
Fri 07:45:44 PM 34.4633 -117.5853 58° Northeast 291 335 22,800 871 Climbing Los Angeles Center
Fri 07:46:46 PM 34.5094 -117.4950 58° Northeast 317 365 23,600 1,016 Climbing Los Angeles Center
Fri 07:47:48 PM 34.5567 -117.3989 59° Northeast 331 381 24,900 677 Climbing Los Angeles Center
Fri 07:48:50 PM 34.5861 -117.2906 72° East 349 402 25,000 48 Climbing Los Angeles Center
Fri 07:49:52 PM 34.5819 -117.1481 92° East 354 407 25,000  Level Los Angeles Center
Fri 07:50:54 PM 34.6114 -117.0425 71° East 340 391 25,000  Level Los Angeles Center
Fri 07:51:56 PM 34.6814 -116.9622 43° Northeast 348 400 25,000  Level Los Angeles Center
Fri 07:52:59 PM 34.7475 -116.8778 46° Northeast 347 399 25,000  Level Los Angeles Center
Fri 07:54:01 PM 34.8108 -116.7878 49° Northeast 350 403 25,000  Level Los Angeles Center
Fri 07:55:03 PM 34.8892 -116.6811 48° Northeast 353 406 25,000  Level Los Angeles Center
Fri 07:56:05 PM 34.9556 -116.5911 48° Northeast 356 410 25,000 -145 Level Los Angeles Center
Fri 07:57:07 PM 35.0231 -116.5022 47° Northeast 359 413 24,700 -339 Descending Los Angeles Center
Fri 07:58:09 PM 35.0978 -116.4153 44° Northeast 368 423 24,300 -339 Descending Los Angeles Center
Fri 07:59:11 PM 35.1675 -116.3239 47° Northeast 368 423 24,000 -387 Descending Los Angeles Center
Fri 08:00:13 PM 35.2514 -116.2200 45° Northeast 361 415 23,500 -920 Descending Los Angeles Center
Fri 08:01:28 PM 35.3317 -116.1183 46° Northeast 348 400 21,900 -1,289 Descending Los Angeles Center
Fri 08:02:28 PM 35.3939 -116.0417 45° Northeast 348 400 20,600 -1,355 Descending Los Angeles Center
Fri 08:03:32 PM 35.4611 -115.9564 46° Northeast 331 381 19,100 -1,671 Descending Los Angeles Center
Fri 08:03:47 PM 35.4861 -115.9281 43° Northeast 312 359 18,400 -2,000 Descending Los Angeles Center
Fri 08:04:23 PM 35.5164 -115.8869 48° Northeast 308 354 17,400 -1,794 Descending Los Angeles Center
Fri 08:05:24 PM 35.5789 -115.8064 46° Northeast 303 349 15,500 -1,820 Descending Los Angeles Center
Fri 08:06:25 PM 35.6364 -115.7325 46° Northeast 301 346 13,700 -1,180 Descending Los Angeles Center
Fri 08:07:26 PM 35.6906 -115.6622 46° Northeast 290 334 13,100 -409 Descending Los Angeles Center
Fri 08:07:53 PM 35.6986 -115.6506 50° Northeast 295 339 13,100 -98 Level Los Angeles Center
Fri 08:08:27 PM 35.7525 -115.5894 43° Northeast 309 356 13,000 -97 Descending Los Angeles Center
Fri 08:08:55 PM 35.7886 -115.5772 15° North 296 341 13,000  Level Los Angeles Center
Fri 08:09:27 PM 35.8283 -115.5808 356° North 273 314 13,000  Level Los Angeles Center
Fri 08:09:57 PM 35.8694 -115.5789 North 272 313 13,000 -90 Level Los Angeles Center
Fri 08:10:34 PM 35.9164 -115.5789 360° North 264 304 12,900 -476 Descending Los Angeles Center
Fri 08:11:00 PM 35.9433 -115.5756 North 266 306 12,500 -590 Descending Los Angeles Center
Fri 08:11:35 PM 35.9833 -115.5786 356° North 233 268 12,300 -590 Descending Los Angeles Center
Fri 08:12:01 PM 36.0122 -115.5758 North 232 267 11,900 -896 Descending Los Angeles Center
Fri 08:12:42 PM 36.0411 -115.5464 39° Northeast 214 246 11,300 -581 Descending Los Angeles Center
Fri 08:13:03 PM 36.0408 -115.5469 238° Southwest 209 241 11,300 -218 Level Los Angeles Center
Fri 08:13:37 PM 36.0375 -115.4892 94° East 201 231 11,100 -194 Descending Los Angeles Center
Fri 08:14:05 PM 36.0358 -115.4636 95° East 206 237 11,100 -658 Level Los Angeles Center
Fri 08:14:50 PM 36.0333 -115.4003 93° East 213 245 10,300 -1,048 Descending Los Angeles Center
Fri 08:15:08 PM 36.0328 -115.3747 92° East 211 243 10,000 -980 Descending Los Angeles Center
Fri 08:15:39 PM 36.0297 -115.3325 95° East 227 261 9,500 -871 Descending Los Angeles Center
Fri 08:16:10 PM 36.0281 -115.2958 93° East 220 253 9,100 -448 Descending Los Angeles Center
Fri 08:16:46 PM 36.0231 -115.2522 98° East 220 253 9,000 -290 Descending Los Angeles Center
Fri 08:17:12 PM 36.0231 -115.2214 90° East 222 255 8,800 -590 Descending Los Angeles Center
Fri 08:17:47 PM 36.0194 -115.1761 96° East 210 242 8,400 -484 Descending Los Angeles Center
Fri 08:18:14 PM 36.0181 -115.1514 94° East 215 247 8,300 -400 Descending Los Angeles Center
Fri 08:18:47 PM 36.0156 -115.1083 94° East 201 231 8,000 -290 Descending Los Angeles Center
Fri 08:19:16 PM 36.0133 -115.0831 96° East 206 237 8,000  Level Los Angeles Center
Fri 08:19:51 PM 36.0089 -115.0389 97° East 205 236 8,000  Level Los Angeles Center
Fri 08:20:18 PM 36.0083 -115.0122 91° East 206 237 8,000 103 Level Los Angeles Center
Fri 08:20:49 PM 36.0389 -114.9969 22° Northeast 209 241 8,100  Climbing Los Angeles Center
Fri 08:21:20 PM 36.0647 -115.0047 346° North 208 239 8,000 -590 Descending Los Angeles Center
Fri 08:21:50 PM 36.0933 -115.0189 338° Northwest 205 236 7,500 -968 Descending Los Angeles Center
Fri 08:22:22 PM 36.1189 -115.0089 18° North 206 237 7,000 -885 Descending Los Angeles Center
Fri 08:22:51 PM 36.1422 -115.0053 North 182 209 6,600 -774 Descending Los Angeles Center
Fri 08:23:24 PM 36.1625 -115.0203 329° Northwest 189 217 6,200 -787 Descending Los Angeles Center
Fri 08:23:52 PM 36.1650 -115.0508 276° West 173 199 5,800 -1,065 Descending Los Angeles Center
Fri 08:24:26 PM 36.1644 -115.0775 269° West 174 200 5,100 -1,200 Descending Los Angeles Center
Fri 08:24:47 PM 36.1531 -115.1056 243° Southwest 170 196 4,700 -1,238 Descending Los Angeles Center
Fri 08:25:29 PM 36.1411 -115.1283 237° Southwest 169 194 3,800 -1,612 Descending Los Angeles Center
Fri 08:25:54 PM 36.1164 -115.1442 207° Southwest 151 174 2,900 -1,297 Descending Los Angeles Center
Fri 08:26:43 PM 36.1042 -115.1506 203° Southwest 156 180 2,200 -857 Descending Los Angeles Center
Fri 08:28:00 PM 36.0801 -115.1523 219° Southwest  Level Estimated

Login

Don't have an account? Register now (free) for customized features, flight alerts, and more!